createdAt,value
2022-09-13T00:00:49.879Z,0
2022-09-13T00:01:50.496Z,0
2022-09-13T00:02:49.575Z,0
2022-09-13T00:03:50.071Z,0
2022-09-13T00:04:50.137Z,0
2022-09-13T00:05:49.911Z,0
2022-09-13T00:06:49.534Z,0
2022-09-13T00:07:49.777Z,0
2022-09-13T00:08:50.520Z,0
2022-09-13T00:09:49.494Z,0
2022-09-13T00:10:50.022Z,0
2022-09-13T00:11:49.738Z,0
2022-09-13T00:12:49.727Z,0
2022-09-13T00:13:49.453Z,0
2022-09-13T00:14:49.704Z,0
2022-09-13T00:15:49.692Z,0
2022-09-13T00:16:49.949Z,0
2022-09-13T00:17:49.406Z,0
2022-09-13T00:18:49.954Z,0
2022-09-13T00:19:49.653Z,0
2022-09-13T00:20:49.702Z,0
2022-09-13T00:21:49.650Z,0
2022-09-13T00:22:49.118Z,0
2022-09-13T00:23:49.882Z,0
2022-09-13T00:24:49.085Z,0
2022-09-13T00:25:49.842Z,0
2022-09-13T00:26:49.577Z,0
2022-09-13T00:27:49.309Z,0
2022-09-13T00:28:49.787Z,0
2022-09-13T00:29:49.801Z,0
2022-09-13T00:30:49.784Z,0
2022-09-13T00:31:49.909Z,0
2022-09-13T00:32:49.307Z,0
2022-09-13T00:33:49.512Z,0
2022-09-13T00:34:49.489Z,0
2022-09-13T00:35:48.977Z,0
2022-09-13T00:36:49.807Z,0
2022-09-13T00:37:49.815Z,0
2022-09-13T00:38:49.469Z,0
2022-09-13T00:39:54.699Z,0
2022-09-13T00:40:49.672Z,0
2022-09-13T00:41:49.175Z,0
2022-09-13T00:42:49.156Z,0
2022-09-13T00:43:49.695Z,0
2022-09-13T00:44:48.869Z,0
2022-09-13T00:45:49.659Z,0
2022-09-13T00:46:49.355Z,0
2022-09-13T00:47:49.095Z,0
2022-09-13T00:48:49.593Z,0
2022-09-13T00:49:49.328Z,0
2022-09-13T00:50:49.313Z,0
2022-09-13T00:51:49.313Z,0
2022-09-13T00:52:53.765Z,0
2022-09-13T00:53:49.339Z,0
2022-09-13T00:54:49.019Z,0
2022-09-13T00:55:49.260Z,0
2022-09-13T00:56:49.249Z,0
2022-09-13T00:57:49.241Z,0
2022-09-13T00:58:48.988Z,0
2022-09-13T00:59:48.966Z,0
2022-09-13T01:00:49.612Z,0
2022-09-13T01:01:48.850Z,0
2022-09-13T01:02:48.679Z,0
2022-09-13T01:03:49.260Z,0
2022-09-13T01:04:49.159Z,0
2022-09-13T01:05:48.908Z,0
2022-09-13T01:06:49.149Z,0
2022-09-13T01:07:48.883Z,0
2022-09-13T01:08:49.454Z,0
2022-09-13T01:09:49.218Z,0
2022-09-13T01:10:49.106Z,0
2022-09-13T01:11:48.834Z,0
2022-09-13T01:12:49.095Z,0
2022-09-13T01:13:48.981Z,0
2022-09-13T01:14:49.062Z,0
2022-09-13T01:15:49.044Z,0
2022-09-13T01:16:54.260Z,0
2022-09-13T01:17:48.509Z,0
2022-09-13T01:18:48.507Z,0
2022-09-13T01:19:48.764Z,0
2022-09-13T01:20:49.002Z,0
2022-09-13T01:21:48.984Z,0
2022-09-13T01:22:48.980Z,0
2022-09-13T01:23:49.230Z,0
2022-09-13T01:24:49.024Z,0
2022-09-13T01:25:49.219Z,0
2022-09-13T01:26:48.418Z,0
2022-09-13T01:27:48.923Z,0
2022-09-13T01:28:48.908Z,0
2022-09-13T01:29:48.900Z,0
2022-09-13T01:30:48.637Z,0
2022-09-13T01:31:48.950Z,0
2022-09-13T01:32:49.123Z,0
2022-09-13T01:34:20.676Z,0
2022-09-13T01:34:48.596Z,0
2022-09-13T01:35:48.840Z,0
2022-09-13T01:36:48.831Z,0
2022-09-13T01:37:48.818Z,0
2022-09-13T01:38:48.290Z,0
2022-09-13T01:39:48.791Z,0
2022-09-13T01:40:48.940Z,0
2022-09-13T01:41:48.540Z,0
2022-09-13T01:42:49.022Z,0
2022-09-13T01:43:49.040Z,0
2022-09-13T01:44:48.479Z,0
2022-09-13T01:45:49.202Z,0
2022-09-13T01:46:49.789Z,0
2022-09-13T01:47:48.704Z,0
2022-09-13T01:48:48.696Z,0
2022-09-13T01:49:49.197Z,0
2022-09-13T01:50:48.754Z,0
2022-09-13T01:51:48.404Z,0
2022-09-13T01:52:48.400Z,0
2022-09-13T01:53:48.701Z,0
2022-09-13T01:54:48.628Z,0
2022-09-13T01:55:48.954Z,0
2022-09-13T01:56:48.767Z,0
2022-09-13T01:57:48.874Z,0
2022-09-13T01:58:48.330Z,0
2022-09-13T01:59:48.320Z,0
2022-09-13T02:00:48.643Z,0
2022-09-13T02:01:48.371Z,0
2022-09-13T02:02:48.307Z,0
2022-09-13T02:03:48.348Z,0
2022-09-13T02:04:48.271Z,0
2022-09-13T02:05:48.770Z,0
2022-09-13T02:06:48.251Z,0
2022-09-13T02:07:48.491Z,0
2022-09-13T02:08:48.730Z,0
2022-09-13T02:09:47.965Z,0
2022-09-13T02:10:48.206Z,0
2022-09-13T02:11:48.703Z,0
2022-09-13T02:12:48.761Z,0
2022-09-13T02:13:48.618Z,0
2022-09-13T02:14:48.151Z,0
2022-09-13T02:15:48.731Z,0
2022-09-13T02:16:48.388Z,0
2022-09-13T02:17:47.872Z,0
2022-09-13T02:18:48.385Z,0
2022-09-13T02:19:48.105Z,0
2022-09-13T02:20:47.847Z,0
2022-09-13T02:21:48.341Z,0
2022-09-13T02:22:48.330Z,0
2022-09-13T02:23:48.469Z,0
2022-09-13T02:24:47.794Z,0
2022-09-13T02:25:48.043Z,0
2022-09-13T02:26:48.282Z,0
2022-09-13T02:27:48.019Z,0
2022-09-13T02:28:48.510Z,0
2022-09-13T02:29:48.373Z,0
2022-09-13T02:30:48.494Z,0
2022-09-13T02:31:48.316Z,0
2022-09-13T02:32:48.222Z,0
2022-09-13T02:33:48.163Z,0
2022-09-13T02:34:48.447Z,0
2022-09-13T02:35:47.978Z,0
2022-09-13T02:36:47.922Z,0
2022-09-13T02:37:48.423Z,0
2022-09-13T02:38:48.152Z,0
2022-09-13T02:39:48.325Z,0
2022-09-13T02:40:47.876Z,0
2022-09-13T02:41:47.877Z,0
2022-09-13T02:42:48.106Z,0
2022-09-13T02:43:48.257Z,0
2022-09-13T02:44:48.167Z,0
2022-09-13T02:45:48.184Z,0
2022-09-13T02:46:48.077Z,0
2022-09-13T02:47:48.054Z,0
2022-09-13T02:48:48.475Z,0
2022-09-13T02:49:48.302Z,0
2022-09-13T02:50:48.276Z,0
2022-09-13T02:51:48.019Z,0
2022-09-13T02:52:47.748Z,0
2022-09-13T02:53:47.986Z,0
2022-09-13T02:54:47.985Z,0
2022-09-13T02:55:47.720Z,0
2022-09-13T02:56:47.964Z,0
2022-09-13T02:57:47.977Z,0
2022-09-13T02:58:47.839Z,0
2022-09-13T02:59:47.933Z,0
2022-09-13T03:00:48.058Z,0
2022-09-13T03:01:48.362Z,0
2022-09-13T03:02:47.641Z,0
2022-09-13T03:03:47.633Z,0
2022-09-13T03:04:47.621Z,0
2022-09-13T03:05:47.619Z,0
2022-09-13T03:06:47.599Z,0
2022-09-13T03:07:47.591Z,0
2022-09-13T03:08:47.773Z,0
2022-09-13T03:09:47.570Z,0
2022-09-13T03:10:47.569Z,0
2022-09-13T03:11:47.554Z,0
2022-09-13T03:12:47.547Z,0
2022-09-13T03:13:47.523Z,0
2022-09-13T03:14:47.773Z,0
2022-09-13T03:15:47.759Z,0
2022-09-13T03:16:48.255Z,0
2022-09-13T03:17:48.017Z,0
2022-09-13T03:18:47.769Z,0
2022-09-13T03:19:47.716Z,0
2022-09-13T03:20:47.201Z,0
2022-09-13T03:21:47.703Z,0
2022-09-13T03:22:47.432Z,0
2022-09-13T03:23:47.425Z,0
2022-09-13T03:24:47.448Z,0
2022-09-13T03:25:47.661Z,0
2022-09-13T03:26:47.679Z,0
2022-09-13T03:27:47.389Z,0
2022-09-13T03:28:47.510Z,0
2022-09-13T03:29:47.361Z,0
2022-09-13T03:30:47.858Z,0
2022-09-13T03:31:47.965Z,0
2022-09-13T03:32:47.906Z,0
2022-09-13T03:49:38.610Z,0
2022-09-13T03:50:37.625Z,0
2022-09-13T03:51:38.131Z,0
2022-09-13T03:52:38.121Z,0
2022-09-13T03:53:38.095Z,0
2022-09-13T03:54:38.098Z,0
2022-09-13T03:55:38.331Z,0
2022-09-13T03:56:38.314Z,0
2022-09-13T03:57:38.054Z,0
2022-09-13T03:58:38.042Z,0
2022-09-13T03:59:37.766Z,0
2022-09-13T04:00:37.790Z,0
2022-09-13T04:01:38.294Z,0
2022-09-13T04:02:38.546Z,0
2022-09-13T04:03:37.732Z,0
2022-09-13T04:04:37.965Z,0
2022-09-13T04:05:38.408Z,0
2022-09-13T04:06:38.205Z,0
2022-09-13T04:07:37.945Z,0
2022-09-13T04:08:37.725Z,0
2022-09-13T04:09:38.183Z,0
2022-09-13T04:10:38.160Z,0
2022-09-13T04:11:37.642Z,0
2022-09-13T04:12:37.882Z,0
2022-09-13T04:13:37.875Z,0
2022-09-13T04:14:37.867Z,0
2022-09-13T04:15:37.889Z,0
2022-09-13T04:16:38.121Z,0
2022-09-13T04:17:37.835Z,0
2022-09-13T04:18:37.567Z,4
2022-09-13T04:19:37.559Z,4
2022-09-13T04:20:38.064Z,0
2022-09-13T04:21:38.246Z,0
2022-09-13T04:22:37.604Z,8
2022-09-13T04:23:37.772Z,8
2022-09-13T04:24:37.766Z,12
2022-09-13T04:25:37.240Z,12
2022-09-13T04:26:37.487Z,16
2022-09-13T04:27:37.997Z,20
2022-09-13T04:28:37.721Z,20
2022-09-13T04:29:37.747Z,28
2022-09-13T04:30:42.670Z,28
2022-09-13T04:31:38.261Z,36
2022-09-13T04:32:37.430Z,44
2022-09-13T04:33:37.164Z,44
2022-09-13T04:34:37.149Z,52
2022-09-13T04:35:37.905Z,56
2022-09-13T04:36:37.895Z,68
2022-09-13T04:37:38.061Z,72
2022-09-13T04:38:37.430Z,80
2022-09-13T04:39:37.621Z,88
2022-09-13T04:40:37.851Z,96
2022-09-13T04:41:37.342Z,108
2022-09-13T04:42:37.840Z,116
2022-09-13T04:43:37.055Z,128
2022-09-13T04:44:37.821Z,140
2022-09-13T04:45:37.586Z,152
2022-09-13T04:46:37.028Z,168
2022-09-13T04:47:37.276Z,184
2022-09-13T04:48:37.616Z,204
2022-09-13T04:49:37.503Z,228
2022-09-13T04:50:37.503Z,248
2022-09-13T04:51:37.229Z,272
2022-09-13T04:52:37.738Z,300
2022-09-13T04:53:37.924Z,332
2022-09-13T04:54:37.459Z,364
2022-09-13T04:55:37.197Z,400
2022-09-13T04:56:37.694Z,444
2022-09-13T04:57:37.173Z,492
2022-09-13T04:58:37.196Z,540
2022-09-13T04:59:37.153Z,588
2022-09-13T05:00:37.146Z,628
2022-09-13T05:01:37.386Z,668
2022-09-13T05:02:37.679Z,712
2022-09-13T05:03:37.370Z,764
2022-09-13T05:04:37.362Z,820
2022-09-13T05:05:37.089Z,876
2022-09-13T05:06:37.094Z,932
2022-09-13T05:07:37.329Z,984
2022-09-13T05:08:37.150Z,1032
2022-09-13T05:09:37.948Z,1080
2022-09-13T05:10:37.305Z,1124
2022-09-13T05:11:37.293Z,1168
2022-09-13T05:12:37.289Z,1208
2022-09-13T05:13:37.266Z,1248
2022-09-13T05:14:37.009Z,1292
2022-09-13T05:15:36.992Z,1336
2022-09-13T05:16:36.993Z,1392
2022-09-13T05:17:37.227Z,1452
2022-09-13T05:18:39.081Z,1512
2022-09-13T05:19:37.210Z,1580
2022-09-13T05:20:36.947Z,1644
2022-09-13T05:21:37.444Z,1724
2022-09-13T05:22:37.182Z,1812
2022-09-13T05:23:36.920Z,1904
2022-09-13T05:24:37.443Z,1992
2022-09-13T05:25:37.703Z,2076
2022-09-13T05:26:36.633Z,2152
2022-09-13T05:27:36.874Z,2216
2022-09-13T05:28:36.611Z,2276
2022-09-13T05:29:37.380Z,2320
2022-09-13T05:30:42.297Z,2352
2022-09-13T05:31:37.306Z,2372
2022-09-13T05:32:36.837Z,2376
2022-09-13T05:33:36.826Z,2360
2022-09-13T05:34:37.063Z,2336
2022-09-13T05:35:37.059Z,2328
2022-09-13T05:36:36.537Z,2320
2022-09-13T05:37:37.046Z,2320
2022-09-13T05:38:36.789Z,2312
2022-09-13T05:40:15.099Z,2284
2022-09-13T05:40:36.986Z,2276
2022-09-13T05:41:37.539Z,2272
2022-09-13T05:42:36.988Z,2268
2022-09-13T05:43:36.981Z,2272
2022-09-13T05:44:36.975Z,2268
2022-09-13T05:45:36.467Z,2288
2022-09-13T05:46:37.298Z,2336
2022-09-13T05:47:36.977Z,2400
2022-09-13T05:48:37.305Z,2452
2022-09-13T05:49:55.451Z,2512
2022-09-13T05:51:03.893Z,2600
2022-09-13T05:51:36.662Z,2628
2022-09-13T05:52:36.656Z,2680
2022-09-13T05:53:36.641Z,2744
2022-09-13T05:54:36.889Z,2796
2022-09-13T05:55:37.136Z,2856
2022-09-13T05:56:36.866Z,2900
2022-09-13T05:57:37.251Z,2932
2022-09-13T05:58:36.848Z,2956
2022-09-13T05:59:37.094Z,2996
2022-09-13T06:00:36.829Z,3044
2022-09-13T06:01:36.940Z,3100
2022-09-13T06:02:36.817Z,3140
2022-09-13T06:03:36.563Z,3168
2022-09-13T06:04:36.563Z,3176
2022-09-13T06:05:38.376Z,3172
2022-09-13T06:06:36.265Z,3144
2022-09-13T06:07:36.514Z,3100
2022-09-13T06:08:36.511Z,3032
2022-09-13T06:09:36.753Z,2976
2022-09-13T06:10:36.748Z,2884
2022-09-13T06:11:36.759Z,2780
2022-09-13T06:12:36.469Z,2732
2022-09-13T06:13:37.154Z,2716
2022-09-13T06:14:36.461Z,2744
2022-09-13T06:15:40.142Z,2788
2022-09-13T06:16:36.918Z,2872
2022-09-13T06:17:36.429Z,2996
2022-09-13T06:18:36.425Z,3124
2022-09-13T06:19:36.666Z,3264
2022-09-13T06:20:36.419Z,3328
2022-09-13T06:21:36.397Z,3332
2022-09-13T06:22:36.404Z,3336
2022-09-13T06:23:36.887Z,3348
2022-09-13T06:24:36.378Z,3376
2022-09-13T06:25:36.623Z,3488
2022-09-13T06:26:36.358Z,3572
2022-09-13T06:27:36.858Z,3616
2022-09-13T06:28:42.363Z,3640
2022-09-13T06:29:36.950Z,3696
2022-09-13T06:30:36.588Z,3856
2022-09-13T06:31:36.796Z,3960
2022-09-13T06:32:36.835Z,4080
2022-09-13T06:33:36.310Z,4196
2022-09-13T06:34:38.737Z,4272
2022-09-13T06:35:36.793Z,4332
2022-09-13T06:36:36.036Z,4364
2022-09-13T06:37:36.523Z,4392
2022-09-13T06:38:36.851Z,4500
2022-09-13T06:39:36.777Z,4788
2022-09-13T06:40:36.547Z,4900
2022-09-13T06:41:36.505Z,5016
2022-09-13T06:42:36.490Z,5008
2022-09-13T06:43:36.477Z,4876
2022-09-13T06:44:36.544Z,4632
2022-09-13T06:45:36.234Z,4356
2022-09-13T06:46:36.805Z,4160
2022-09-13T06:47:35.935Z,3980
2022-09-13T06:48:36.444Z,3740
2022-09-13T06:49:36.428Z,3528
2022-09-13T06:50:36.431Z,3336
2022-09-13T06:51:36.166Z,3360
2022-09-13T06:52:36.674Z,3292
2022-09-13T06:53:36.164Z,3296
2022-09-13T06:54:36.147Z,3352
2022-09-13T06:55:36.400Z,3272
2022-09-13T06:56:36.394Z,3148
2022-09-13T06:57:36.380Z,2964
2022-09-13T06:58:36.370Z,3096
2022-09-13T06:59:36.361Z,3232
2022-09-13T07:00:37.044Z,3328
2022-09-13T07:01:37.206Z,3156
2022-09-13T07:02:36.087Z,3416
2022-09-13T07:03:36.621Z,3500
2022-09-13T07:04:36.605Z,3516
2022-09-13T07:05:36.064Z,3476
2022-09-13T07:06:36.328Z,3700
2022-09-13T07:07:36.055Z,3980
2022-09-13T07:08:36.550Z,4280
2022-09-13T07:09:36.291Z,4528
2022-09-13T07:10:36.283Z,4692
2022-09-13T07:11:35.766Z,4736
2022-09-13T07:12:36.271Z,5020
2022-09-13T07:13:36.004Z,5140
2022-09-13T07:14:36.001Z,4900
2022-09-13T07:15:36.110Z,4680
2022-09-13T07:16:36.401Z,4492
2022-09-13T07:17:38.502Z,4400
2022-09-13T07:18:35.729Z,4456
2022-09-13T07:19:35.980Z,4392
2022-09-13T07:20:35.709Z,4624
2022-09-13T07:21:36.282Z,4788
2022-09-13T07:22:36.202Z,5212
2022-09-13T07:23:35.936Z,5740
2022-09-13T07:24:35.937Z,6104
2022-09-13T07:25:36.182Z,6360
2022-09-13T07:26:36.422Z,6644
2022-09-13T07:27:36.169Z,7072
2022-09-13T07:28:41.666Z,6856
2022-09-13T07:29:36.164Z,6364
2022-09-13T07:30:35.636Z,6032
2022-09-13T07:31:36.386Z,5784
2022-09-13T07:32:36.634Z,4952
2022-09-13T07:33:35.993Z,4444
2022-09-13T07:34:35.871Z,4284
2022-09-13T07:35:35.860Z,4352
2022-09-13T07:36:35.602Z,4780
2022-09-13T07:37:35.850Z,5004
2022-09-13T07:38:35.843Z,5116
2022-09-13T07:39:35.839Z,5448
2022-09-13T07:40:36.345Z,6168
2022-09-13T07:41:35.822Z,6828
2022-09-13T07:42:35.814Z,7504
2022-09-13T07:43:36.068Z,8876
2022-09-13T07:44:36.056Z,9732
2022-09-13T07:45:36.058Z,10116
2022-09-13T07:46:36.255Z,9080
2022-09-13T07:47:35.807Z,7728
2022-09-13T07:48:40.745Z,7796
2022-09-13T07:49:36.403Z,8036
2022-09-13T07:50:36.039Z,8220
2022-09-13T07:51:35.775Z,8440
2022-09-13T07:52:36.018Z,8776
2022-09-13T07:53:36.263Z,8940
2022-09-13T07:54:35.752Z,8744
2022-09-13T07:55:35.747Z,7628
2022-09-13T07:56:35.993Z,6588
2022-09-13T07:57:35.989Z,5540
2022-09-13T07:58:35.728Z,4868
2022-09-13T07:59:37.055Z,4696
2022-09-13T08:00:35.987Z,4676
2022-09-13T08:01:36.041Z,4652
2022-09-13T08:02:36.542Z,4824
2022-09-13T08:03:36.220Z,5396
2022-09-13T08:04:41.474Z,6216
2022-09-13T08:05:35.969Z,6928
2022-09-13T08:06:35.939Z,7800
2022-09-13T08:07:35.934Z,8752
2022-09-13T08:08:35.677Z,9308
2022-09-13T08:09:35.671Z,9976
2022-09-13T08:10:35.694Z,10208
2022-09-13T08:11:35.920Z,9948
2022-09-13T08:12:35.668Z,9456
2022-09-13T08:13:35.907Z,9212
2022-09-13T08:14:35.390Z,8252
2022-09-13T08:15:35.940Z,6556
2022-09-13T08:16:36.142Z,5640
2022-09-13T08:17:35.883Z,5128
2022-09-13T08:18:36.139Z,5024
2022-09-13T08:19:36.131Z,5528
2022-09-13T08:20:36.287Z,5924
2022-09-13T08:21:35.720Z,5784
2022-09-13T08:22:35.615Z,5856
2022-09-13T08:23:35.351Z,6696
2022-09-13T08:24:36.112Z,7444
2022-09-13T08:25:35.338Z,8016
2022-09-13T08:26:36.106Z,8100
2022-09-13T08:27:36.090Z,7840
2022-09-13T08:28:35.323Z,7272
2022-09-13T08:29:35.575Z,6596
2022-09-13T08:30:35.590Z,6340
2022-09-13T08:31:35.974Z,6300
2022-09-13T08:32:35.561Z,6208
2022-09-13T08:33:35.815Z,5968
2022-09-13T08:34:35.799Z,5660
2022-09-13T08:35:35.594Z,5232
2022-09-13T08:36:36.208Z,4596
2022-09-13T08:37:36.063Z,3944
2022-09-13T08:38:35.279Z,3540
2022-09-13T08:39:38.419Z,3376
2022-09-13T08:40:35.522Z,3380
2022-09-13T08:41:35.261Z,3448
2022-09-13T08:42:35.763Z,3572
2022-09-13T08:43:35.757Z,3960
2022-09-13T08:44:35.762Z,4388
2022-09-13T08:45:35.746Z,4580
2022-09-13T08:46:36.192Z,4620
2022-09-13T08:47:35.992Z,4592
2022-09-13T08:48:35.735Z,4700
2022-09-13T08:49:35.731Z,5064
2022-09-13T08:50:35.722Z,5672
2022-09-13T08:51:35.463Z,6624
2022-09-13T08:52:36.126Z,7736
2022-09-13T08:53:35.732Z,8656
2022-09-13T08:54:35.706Z,9076
2022-09-13T08:55:35.441Z,9136
2022-09-13T08:56:35.945Z,9068
2022-09-13T08:57:35.433Z,8796
2022-09-13T08:58:35.682Z,8576
2022-09-13T08:59:35.681Z,8492
2022-09-13T09:00:35.666Z,8820
2022-09-13T09:01:35.717Z,8260
2022-09-13T09:02:35.438Z,8448
2022-09-13T09:03:35.145Z,9260
2022-09-13T09:04:35.678Z,10412
2022-09-13T09:05:35.389Z,10964
2022-09-13T09:06:35.899Z,10728
2022-09-13T09:07:35.638Z,10228
2022-09-13T09:08:35.982Z,10024
2022-09-13T09:09:35.399Z,9864
2022-09-13T09:10:35.126Z,9992
2022-09-13T09:11:35.873Z,10228
2022-09-13T09:12:35.355Z,10580
2022-09-13T09:13:35.611Z,10776
2022-09-13T09:14:35.867Z,10544
2022-09-13T09:15:35.841Z,10168
2022-09-13T09:16:35.336Z,9940
2022-09-13T09:17:35.104Z,9884
2022-09-13T09:18:35.585Z,9772
2022-09-13T09:19:35.332Z,9540
2022-09-13T09:20:35.324Z,9328
2022-09-13T09:21:35.615Z,9192
2022-09-13T09:22:35.315Z,9064
2022-09-13T09:23:35.602Z,8940
2022-09-13T09:24:35.644Z,8960
2022-09-13T09:25:35.854Z,8844
2022-09-13T09:26:35.547Z,8176
2022-09-13T09:27:35.818Z,7656
2022-09-13T09:28:35.571Z,8084
2022-09-13T09:29:35.800Z,9460
2022-09-13T09:30:35.985Z,11032
2022-09-13T09:31:35.816Z,11880
2022-09-13T09:32:35.536Z,13432
2022-09-13T09:33:35.534Z,13544
2022-09-13T09:34:35.535Z,13052
2022-09-13T09:35:35.780Z,12000
2022-09-13T09:36:35.515Z,11308
2022-09-13T09:37:35.001Z,10908
2022-09-13T09:38:35.256Z,11072
2022-09-13T09:39:35.252Z,11376
2022-09-13T09:40:39.324Z,10900
2022-09-13T09:41:35.611Z,9980
2022-09-13T09:42:35.784Z,9108
2022-09-13T09:43:35.507Z,8484
2022-09-13T09:44:35.744Z,8612
2022-09-13T09:45:35.740Z,8960
2022-09-13T09:46:35.598Z,9376
2022-09-13T09:47:36.614Z,9920
2022-09-13T09:48:35.216Z,10312
2022-09-13T09:49:35.209Z,10952
2022-09-13T09:50:35.461Z,11316
2022-09-13T09:51:35.720Z,11576
2022-09-13T09:52:35.710Z,11540
2022-09-13T09:53:41.033Z,11832
2022-09-13T09:54:34.961Z,12204
2022-09-13T09:55:35.445Z,12176
2022-09-13T09:56:35.854Z,11488
2022-09-13T09:57:35.724Z,10724
2022-09-13T09:58:35.446Z,10240
2022-09-13T09:59:35.176Z,10160
2022-09-13T10:00:35.187Z,10364
2022-09-13T10:01:35.531Z,10724
2022-09-13T10:02:35.244Z,10712
2022-09-13T10:03:35.434Z,10220
2022-09-13T10:04:35.417Z,9664
2022-09-13T10:05:35.415Z,9360
2022-09-13T10:06:35.699Z,9236
2022-09-13T10:07:35.155Z,9156
2022-09-13T10:08:35.408Z,8840
2022-09-13T10:09:35.653Z,8308
2022-09-13T10:10:35.143Z,7664
2022-09-13T10:11:35.137Z,7448
2022-09-13T10:12:35.800Z,7220
2022-09-13T10:13:39.191Z,7044
2022-09-13T10:14:35.388Z,6444
2022-09-13T10:15:35.643Z,5548
2022-09-13T10:16:35.736Z,4944
2022-09-13T10:17:35.373Z,4332
2022-09-13T10:18:51.719Z,3688
2022-09-13T10:19:35.366Z,3568
2022-09-13T10:20:35.372Z,3564
2022-09-13T10:21:35.355Z,3788
2022-09-13T10:22:35.364Z,4328
2022-09-13T10:23:35.098Z,5088
2022-09-13T10:24:35.606Z,6144
2022-09-13T10:25:35.360Z,7428
2022-09-13T10:26:35.085Z,9024
2022-09-13T10:27:35.597Z,10120
2022-09-13T10:28:35.694Z,10240
2022-09-13T10:29:35.594Z,9824
2022-09-13T10:30:35.315Z,9312
2022-09-13T10:31:35.325Z,8928
2022-09-13T10:32:35.582Z,8724
2022-09-13T10:33:34.808Z,8812
2022-09-13T10:34:35.576Z,8936
2022-09-13T10:35:35.570Z,9128
2022-09-13T10:36:58.558Z,9164
2022-09-13T10:37:35.052Z,9016
2022-09-13T10:38:35.304Z,8700
2022-09-13T10:39:35.045Z,8288
2022-09-13T10:40:35.142Z,8128
2022-09-13T10:41:35.313Z,8056
2022-09-13T10:42:35.040Z,7980
2022-09-13T10:43:35.293Z,8232
2022-09-13T10:44:35.614Z,8416
2022-09-13T10:45:35.583Z,8500
2022-09-13T10:46:35.024Z,8668
2022-09-13T10:47:35.532Z,9148
2022-09-13T10:48:35.024Z,10008
2022-09-13T10:49:35.015Z,10848
2022-09-13T10:50:35.514Z,11212
2022-09-13T10:51:35.541Z,11352
2022-09-13T10:52:35.526Z,11412
2022-09-13T10:53:35.262Z,11376
2022-09-13T10:54:34.998Z,11148
2022-09-13T10:55:35.256Z,11136
2022-09-13T10:56:34.997Z,11292
2022-09-13T10:57:34.989Z,11452
2022-09-13T10:58:35.243Z,11556
2022-09-13T10:59:35.518Z,11496
2022-09-13T11:00:35.411Z,11408
2022-09-13T11:01:40.851Z,11144
2022-09-13T11:02:35.488Z,11012
2022-09-13T11:03:34.978Z,11264
2022-09-13T11:04:35.740Z,11492
2022-09-13T11:05:35.483Z,11552
2022-09-13T11:06:35.225Z,11556
2022-09-13T11:07:35.233Z,11304
2022-09-13T11:08:35.479Z,11012
2022-09-13T11:09:35.242Z,10896
2022-09-13T11:10:34.969Z,10964
2022-09-13T11:11:35.472Z,11044
2022-09-13T11:12:35.465Z,11040
2022-09-13T11:13:34.959Z,11068
2022-09-13T11:14:35.219Z,11132
2022-09-13T11:15:35.463Z,11132
2022-09-13T11:16:35.858Z,11328
2022-09-13T11:17:35.490Z,11720
2022-09-13T11:18:34.951Z,12040
2022-09-13T11:19:35.207Z,12084
2022-09-13T11:20:34.946Z,11924
2022-09-13T11:21:35.462Z,11896
2022-09-13T11:22:34.696Z,11968
2022-09-13T11:23:34.937Z,11840
2022-09-13T11:24:35.190Z,11796
2022-09-13T11:25:34.697Z,11708
2022-09-13T11:26:40.561Z,11416
2022-09-13T11:27:34.933Z,11124
2022-09-13T11:28:35.176Z,11008
2022-09-13T11:29:35.189Z,10720
2022-09-13T11:30:37.142Z,10308
2022-09-13T11:31:35.478Z,10356
2022-09-13T11:32:35.602Z,10556
2022-09-13T11:33:35.286Z,10852
2022-09-13T11:34:35.176Z,11048
2022-09-13T11:35:35.235Z,11028
2022-09-13T11:36:35.172Z,11040
2022-09-13T11:37:35.169Z,10976
2022-09-13T11:38:35.190Z,10944
2022-09-13T11:39:35.180Z,11004
2022-09-13T11:40:35.418Z,11132
2022-09-13T11:41:34.953Z,10776
2022-09-13T11:42:34.910Z,10456
2022-09-13T11:43:35.414Z,10208
2022-09-13T11:44:35.455Z,9968
2022-09-13T11:45:35.402Z,9940
2022-09-13T11:46:35.409Z,10176
2022-09-13T11:47:35.155Z,10560
2022-09-13T11:48:35.533Z,10980
2022-09-13T11:49:35.431Z,11284
2022-09-13T11:50:34.902Z,11468
2022-09-13T11:51:35.146Z,11544
2022-09-13T11:52:35.407Z,11624
2022-09-13T11:53:36.970Z,11620
2022-09-13T11:54:35.167Z,11556
2022-09-13T11:55:34.890Z,11232
2022-09-13T11:56:35.146Z,10792
2022-09-13T11:57:34.894Z,10428
2022-09-13T11:58:35.141Z,10132
2022-09-13T11:59:35.391Z,9972
2022-09-13T12:00:35.137Z,10192
2022-09-13T12:01:35.152Z,10492
2022-09-13T12:02:35.856Z,10840
2022-09-13T12:03:35.398Z,11120
2022-09-13T12:04:40.859Z,11296
2022-09-13T12:05:34.906Z,11108
2022-09-13T12:06:35.133Z,10688
2022-09-13T12:07:34.885Z,10128
2022-09-13T12:08:35.387Z,9620
2022-09-13T12:09:35.142Z,9368
2022-09-13T12:10:35.147Z,8756
2022-09-13T12:11:35.129Z,7740
2022-09-13T12:12:35.127Z,6744
2022-09-13T12:13:35.376Z,5904
2022-09-13T12:14:35.122Z,5480
2022-09-13T12:15:35.478Z,5692
2022-09-13T12:16:40.709Z,6372
2022-09-13T12:17:34.867Z,7044
2022-09-13T12:18:34.865Z,7388
2022-09-13T12:19:34.863Z,7680
2022-09-13T12:20:35.411Z,7628
2022-09-13T12:21:35.230Z,7636
2022-09-13T12:22:37.898Z,7944
2022-09-13T12:23:34.862Z,8384
2022-09-13T12:24:35.110Z,8580
2022-09-13T12:25:35.122Z,8796
2022-09-13T12:26:34.857Z,8616
2022-09-13T12:27:40.571Z,8124
2022-09-13T12:28:35.349Z,7640
2022-09-13T12:29:35.352Z,7128
2022-09-13T12:30:35.105Z,6552
2022-09-13T12:31:35.272Z,5704
2022-09-13T12:32:34.832Z,5276
2022-09-13T12:33:35.103Z,5160
2022-09-13T12:34:34.833Z,5468
2022-09-13T12:35:35.355Z,6152
2022-09-13T12:36:35.501Z,6908
2022-09-13T12:37:35.110Z,7524
2022-09-13T12:38:38.643Z,7876
2022-09-13T12:39:35.090Z,8144
2022-09-13T12:40:34.562Z,8144
2022-09-13T12:41:34.821Z,7832
2022-09-13T12:42:34.815Z,7480
2022-09-13T12:43:34.868Z,7452
2022-09-13T12:44:40.353Z,7952
2022-09-13T12:45:35.270Z,8620
2022-09-13T12:46:34.806Z,9384
2022-09-13T12:47:35.060Z,9516
2022-09-13T12:48:35.310Z,9160
2022-09-13T12:49:35.053Z,8684
2022-09-13T12:50:50.710Z,8468
2022-09-13T12:51:34.802Z,8600
2022-09-13T12:52:35.482Z,8856
2022-09-13T12:53:35.136Z,8884
2022-09-13T12:54:35.297Z,8784
2022-09-13T12:55:52.575Z,8892
2022-09-13T12:56:35.044Z,8956
2022-09-13T12:57:34.794Z,8796
2022-09-13T12:58:34.526Z,8212
2022-09-13T12:59:34.779Z,7984
2022-09-13T13:00:35.120Z,7840
2022-09-13T13:01:35.519Z,7616
2022-09-13T13:02:34.770Z,7628
2022-09-13T13:03:34.788Z,7624
2022-09-13T13:04:35.023Z,7552
2022-09-13T13:05:34.767Z,7632
2022-09-13T13:06:35.303Z,7704
2022-09-13T13:07:35.026Z,7868
2022-09-13T13:08:35.134Z,7784
2022-09-13T13:09:36.301Z,7572
2022-09-13T13:10:34.814Z,7384
2022-09-13T13:11:35.057Z,7012
2022-09-13T13:12:34.770Z,6648
2022-09-13T13:13:35.000Z,6472
2022-09-13T13:14:34.494Z,6432
2022-09-13T13:15:35.253Z,6644
2022-09-13T13:16:35.034Z,7092
2022-09-13T13:17:35.316Z,7328
2022-09-13T13:18:34.485Z,7464
2022-09-13T13:19:35.012Z,7540
2022-09-13T13:20:34.995Z,7624
2022-09-13T13:21:35.247Z,7864
2022-09-13T13:22:35.244Z,8472
2022-09-13T13:23:34.489Z,8868
2022-09-13T13:24:35.411Z,8876
2022-09-13T13:25:35.256Z,8580
2022-09-13T13:26:34.981Z,7684
2022-09-13T13:27:34.974Z,6352
2022-09-13T13:28:34.978Z,5496
2022-09-13T13:29:34.723Z,5344
2022-09-13T13:30:34.469Z,5332
2022-09-13T13:31:35.516Z,5332
2022-09-13T13:32:34.718Z,5344
2022-09-13T13:33:35.219Z,5436
2022-09-13T13:34:34.476Z,5484
2022-09-13T13:35:35.220Z,5580
2022-09-13T13:36:34.961Z,5688
2022-09-13T13:37:34.952Z,5724
2022-09-13T13:38:34.701Z,5676
2022-09-13T13:39:34.959Z,5652
2022-09-13T13:40:35.463Z,5656
2022-09-13T13:41:34.981Z,5588
2022-09-13T13:42:34.693Z,5548
2022-09-13T13:43:34.685Z,5504
2022-09-13T13:44:34.690Z,5448
2022-09-13T13:45:34.948Z,5324
2022-09-13T13:46:35.201Z,5252
2022-09-13T13:47:34.712Z,5268
2022-09-13T13:48:34.938Z,5320
2022-09-13T13:49:35.006Z,5364
2022-09-13T13:50:39.304Z,5384
2022-09-13T13:51:34.925Z,5368
2022-09-13T13:52:35.192Z,5396
2022-09-13T13:53:34.925Z,5460
2022-09-13T13:54:34.928Z,5528
2022-09-13T13:55:34.962Z,5500
2022-09-13T13:56:35.771Z,5520
2022-09-13T13:57:35.199Z,5500